createdAt,value
2022-11-09T00:01:32.336Z,18.73
2022-11-09T00:04:01.061Z,18.00
2022-11-09T00:06:29.137Z,20.17
2022-11-09T00:08:55.756Z,19.10
2022-11-09T00:11:22.446Z,20.67
2022-11-09T00:13:49.018Z,19.93
2022-11-09T00:16:17.040Z,19.87
2022-11-09T00:18:47.390Z,20.53
2022-11-09T00:21:19.192Z,19.53
2022-11-09T00:23:45.911Z,19.07
2022-11-09T00:26:14.748Z,21.13
2022-11-09T00:28:41.392Z,19.87
2022-11-09T00:31:11.070Z,19.63
2022-11-09T00:33:37.526Z,18.80
2022-11-09T00:36:09.710Z,19.53
2022-11-09T00:38:36.767Z,19.03
2022-11-09T00:41:04.903Z,19.50
2022-11-09T00:43:31.347Z,19.40
2022-11-09T00:45:57.835Z,18.33
2022-11-09T00:48:24.289Z,18.37
2022-11-09T00:50:55.396Z,18.90
2022-11-09T00:53:23.139Z,18.60
2022-11-09T00:56:02.661Z,19.67
2022-11-09T00:58:31.390Z,19.97
2022-11-09T01:00:59.230Z,18.00
2022-11-09T01:03:26.362Z,18.60
2022-11-09T01:05:53.125Z,18.97
2022-11-09T01:08:19.669Z,18.97
2022-11-09T01:10:48.092Z,19.03
2022-11-09T01:13:16.423Z,19.70
2022-11-09T01:15:44.992Z,18.53
2022-11-09T01:18:11.437Z,19.50
2022-11-09T01:20:42.488Z,19.03
2022-11-09T01:23:09.987Z,18.90
2022-11-09T01:25:36.766Z,18.77
2022-11-09T01:28:03.580Z,21.03
2022-11-09T01:30:33.455Z,18.83
2022-11-09T01:32:59.909Z,18.57
2022-11-09T01:35:26.344Z,18.90
2022-11-09T01:37:52.776Z,19.43
2022-11-09T01:40:19.259Z,19.80
2022-11-09T01:42:45.899Z,18.33
2022-11-09T01:45:18.152Z,18.23
2022-11-09T01:47:48.800Z,20.20
2022-11-09T01:50:19.244Z,19.70
2022-11-09T01:52:48.573Z,19.30
2022-11-09T01:55:20.406Z,19.43
2022-11-09T01:58:09.906Z,19.77
2022-11-09T02:00:38.979Z,19.17
2022-11-09T02:03:09.864Z,19.40
2022-11-09T02:05:37.697Z,19.90
2022-11-09T02:08:05.349Z,20.27
2022-11-09T02:10:44.864Z,20.47
2022-11-09T02:13:13.158Z,20.53
2022-11-09T02:15:44.429Z,19.67
2022-11-09T02:18:12.204Z,19.73
2022-11-09T02:20:50.407Z,19.93
2022-11-09T02:23:17.787Z,20.50
2022-11-09T02:25:51.613Z,19.63
2022-11-09T02:28:18.069Z,19.20
2022-11-09T02:30:46.823Z,21.23
2022-11-09T02:33:13.259Z,20.53
2022-11-09T02:35:39.660Z,20.10
2022-11-09T02:38:08.834Z,20.87
2022-11-09T02:40:37.861Z,21.40
2022-11-09T02:43:05.826Z,20.23
2022-11-09T02:45:32.319Z,20.53
2022-11-09T02:47:59.028Z,20.70
2022-11-09T02:50:26.374Z,22.10
2022-11-09T02:52:52.791Z,19.77
2022-11-09T02:55:19.215Z,21.80
2022-11-09T02:57:45.800Z,22.27
2022-11-09T03:00:12.901Z,21.67
2022-11-09T03:02:39.334Z,21.47
2022-11-09T03:05:06.398Z,21.30
2022-11-09T03:07:32.855Z,20.87
2022-11-09T03:09:59.365Z,21.27
2022-11-09T03:12:31.584Z,20.87
2022-11-09T03:15:03.937Z,22.53
2022-11-09T03:17:31.810Z,22.03
2022-11-09T03:19:58.248Z,22.37
2022-11-09T03:22:24.659Z,22.07
2022-11-09T03:24:51.158Z,21.80
2022-11-09T03:27:17.869Z,21.63
2022-11-09T03:29:44.428Z,20.43
2022-11-09T03:32:10.868Z,21.43
2022-11-09T03:34:37.298Z,21.93
2022-11-09T03:37:04.158Z,21.47
2022-11-09T03:39:30.639Z,21.80
2022-11-09T03:41:57.074Z,22.50
2022-11-09T03:44:23.563Z,22.57
2022-11-09T03:46:49.984Z,23.73
2022-11-09T03:49:16.457Z,22.30
2022-11-09T03:51:42.859Z,22.73
2022-11-09T03:54:09.371Z,23.07
2022-11-09T03:56:35.846Z,20.93
2022-11-09T03:59:02.282Z,22.27
2022-11-09T04:01:29.244Z,21.57
2022-11-09T04:03:55.728Z,21.43
2022-11-09T04:06:22.322Z,22.47
2022-11-09T04:08:51.505Z,23.13
2022-11-09T04:11:18.189Z,21.87
2022-11-09T04:13:44.741Z,22.70
2022-11-09T04:16:11.227Z,22.37
2022-11-09T04:18:37.861Z,23.27
2022-11-09T04:21:04.386Z,22.40
2022-11-09T04:23:30.895Z,22.30
2022-11-09T04:25:59.561Z,22.53
2022-11-09T04:28:26.488Z,23.87
2022-11-09T04:30:52.961Z,22.10
2022-11-09T04:33:19.927Z,22.80
2022-11-09T04:35:46.738Z,24.00
2022-11-09T04:38:14.099Z,22.77
2022-11-09T04:40:40.803Z,22.93
2022-11-09T04:43:09.518Z,23.70
2022-11-09T04:45:36.014Z,24.77
2022-11-09T04:48:05.554Z,23.87
2022-11-09T04:50:32.744Z,23.90
2022-11-09T04:53:13.408Z,23.33
2022-11-09T04:55:40.484Z,24.40
2022-11-09T04:58:07.288Z,24.90
2022-11-09T05:00:34.275Z,24.50
2022-11-09T05:03:05.053Z,23.70
2022-11-09T05:05:33.813Z,23.77
2022-11-09T05:08:00.230Z,23.77
2022-11-09T05:10:26.800Z,25.53
2022-11-09T05:13:04.445Z,23.53
2022-11-09T05:15:31.382Z,23.97
2022-11-09T05:17:58.135Z,23.63
2022-11-09T05:20:24.892Z,25.83
2022-11-09T05:23:10.040Z,25.17
2022-11-09T05:25:36.464Z,24.57
2022-11-09T05:28:03.085Z,23.70
2022-11-09T05:30:29.587Z,24.73
2022-11-09T05:32:55.997Z,25.20
2022-11-09T05:35:22.577Z,25.77
2022-11-09T05:37:49.807Z,26.20
2022-11-09T05:40:17.765Z,25.60
2022-11-09T05:42:44.679Z,25.23
2022-11-09T05:45:40.712Z,24.97
2022-11-09T05:48:03.544Z,24.67
2022-11-09T05:50:29.968Z,26.23
2022-11-09T05:52:59.143Z,26.73
2022-11-09T05:55:25.712Z,25.00
2022-11-09T05:57:52.204Z,25.90
2022-11-09T06:00:18.941Z,25.73
2022-11-09T06:02:45.548Z,26.60
2022-11-09T06:05:12.215Z,24.70
2022-11-09T06:07:38.767Z,25.70
2022-11-09T06:10:05.895Z,26.80
2022-11-09T06:12:32.362Z,25.97
2022-11-09T06:14:59.462Z,26.80
2022-11-09T06:17:26.243Z,25.73
2022-11-09T06:19:52.894Z,25.23
2022-11-09T06:22:19.560Z,25.83
2022-11-09T06:24:46.105Z,25.77
2022-11-09T06:27:12.656Z,24.53
2022-11-09T06:29:39.112Z,24.17
2022-11-09T06:32:05.759Z,25.07
2022-11-09T06:34:32.219Z,25.77
2022-11-09T06:36:59.036Z,24.27
2022-11-09T06:39:25.498Z,24.53
2022-11-09T06:41:51.928Z,25.37
2022-11-09T06:44:18.353Z,24.57
2022-11-09T06:46:44.766Z,24.37
2022-11-09T06:50:40.368Z,24.87
2022-11-09T06:53:09.626Z,26.20
2022-11-09T06:55:36.752Z,25.50
2022-11-09T06:58:11.488Z,26.43
2022-11-09T07:00:38.391Z,24.13
2022-11-09T07:03:04.815Z,24.27
2022-11-09T07:05:31.441Z,25.50
2022-11-09T07:07:58.243Z,25.43
2022-11-09T07:10:25.228Z,24.97
2022-11-09T07:12:51.803Z,25.17
2022-11-09T07:15:18.757Z,25.33
2022-11-09T07:17:45.256Z,24.80
2022-11-09T07:20:12.167Z,24.87
2022-11-09T07:22:39.892Z,24.87
2022-11-09T07:25:07.848Z,24.83
2022-11-09T07:27:34.380Z,25.57
2022-11-09T07:30:01.003Z,24.70
2022-11-09T07:33:02.043Z,24.73
2022-11-09T07:35:14.403Z,24.43
2022-11-09T07:37:40.822Z,23.37
2022-11-09T07:40:08.201Z,24.87
2022-11-09T07:42:34.762Z,25.13
2022-11-09T07:45:01.265Z,24.60
2022-11-09T07:47:27.914Z,24.50
2022-11-09T07:49:54.412Z,25.00
2022-11-09T07:52:20.854Z,24.77
2022-11-09T07:54:51.938Z,24.00
2022-11-09T07:57:18.842Z,25.53
2022-11-09T07:59:45.355Z,24.77
2022-11-09T08:02:12.848Z,23.63
2022-11-09T08:04:39.695Z,23.83
2022-11-09T08:07:06.293Z,25.97
2022-11-09T08:09:32.967Z,25.00
2022-11-09T08:12:02.168Z,23.00
2022-11-09T08:14:29.498Z,22.80
2022-11-09T08:16:56.745Z,22.53
2022-11-09T08:19:23.353Z,23.30
2022-11-09T08:21:50.140Z,22.10
2022-11-09T08:24:16.696Z,22.20
2022-11-09T08:26:43.408Z,22.03
2022-11-09T08:29:09.978Z,21.50
2022-11-09T08:31:36.906Z,21.73
2022-11-09T08:34:03.733Z,20.03
2022-11-09T08:36:31.429Z,22.07
2022-11-09T08:38:59.311Z,19.50
2022-11-09T08:41:25.930Z,19.60
2022-11-09T08:43:52.617Z,20.50
2022-11-09T08:46:19.356Z,20.10
2022-11-09T08:48:46.937Z,21.20
2022-11-09T08:51:13.564Z,20.50
2022-11-09T08:53:40.319Z,21.43
2022-11-09T08:56:08.264Z,21.27
2022-11-09T08:58:35.211Z,20.80
2022-11-09T09:01:01.963Z,21.47
2022-11-09T09:03:29.476Z,20.80
2022-11-09T09:05:56.118Z,21.80
2022-11-09T09:08:23.837Z,20.17
2022-11-09T09:10:50.715Z,19.70
2022-11-09T09:13:19.337Z,20.50
2022-11-09T09:15:48.478Z,19.93
2022-11-09T09:18:15.167Z,21.43
2022-11-09T09:20:41.699Z,21.37
2022-11-09T09:23:08.244Z,20.90
2022-11-09T09:25:34.985Z,21.50
2022-11-09T09:28:01.620Z,21.50
2022-11-09T09:30:29.370Z,21.13
2022-11-09T09:33:02.019Z,21.13
2022-11-09T09:35:29.817Z,21.60
2022-11-09T09:37:58.724Z,22.07
2022-11-09T09:40:35.355Z,21.20
2022-11-09T09:43:02.068Z,21.47
2022-11-09T09:45:32.832Z,20.40
2022-11-09T09:48:05.428Z,21.27
2022-11-09T09:50:38.221Z,21.23
2022-11-09T09:53:24.147Z,21.77
2022-11-09T09:55:56.307Z,21.70
2022-11-09T09:58:31.753Z,22.00
2022-11-09T10:01:15.480Z,22.40
2022-11-09T10:03:42.280Z,21.10
2022-11-09T10:06:15.063Z,22.27
2022-11-09T10:08:57.085Z,22.13
2022-11-09T10:11:46.393Z,21.47
2022-11-09T10:14:29.783Z,22.13
2022-11-09T10:17:14.800Z,21.10
2022-11-09T10:19:58.454Z,21.00
2022-11-09T10:22:49.901Z,22.33
2022-11-09T10:25:43.318Z,22.77
2022-11-09T10:28:15.363Z,20.87
2022-11-09T10:30:42.322Z,21.90
2022-11-09T10:33:11.395Z,22.37
2022-11-09T10:36:03.844Z,21.73
2022-11-09T10:38:38.736Z,20.60
2022-11-09T10:41:32.722Z,20.97
2022-11-09T10:43:59.777Z,22.90
2022-11-09T10:46:26.259Z,23.10
2022-11-09T10:48:54.288Z,22.00
2022-11-09T10:51:35.868Z,22.20
2022-11-09T10:54:28.335Z,20.90
2022-11-09T10:57:06.636Z,21.87
2022-11-09T10:59:39.952Z,21.13
2022-11-09T11:02:24.432Z,21.63
2022-11-09T11:05:16.586Z,20.87
2022-11-09T11:07:43.477Z,21.17
2022-11-09T11:10:15.832Z,21.17
2022-11-09T11:12:51.596Z,21.80
2022-11-09T11:15:32.569Z,22.23
2022-11-09T11:18:04.996Z,21.20
2022-11-09T11:20:35.935Z,21.73
2022-11-09T11:23:13.272Z,21.40
2022-11-09T11:25:59.264Z,22.43
2022-11-09T11:28:47.890Z,21.30
2022-11-09T11:31:16.385Z,21.30
2022-11-09T11:33:42.934Z,20.60
2022-11-09T11:36:20.837Z,20.97
2022-11-09T11:38:57.713Z,21.10
2022-11-09T11:41:24.366Z,20.97
2022-11-09T11:43:56.850Z,21.50
2022-11-09T11:46:37.424Z,21.63
2022-11-09T11:49:33.378Z,20.53
2022-11-09T11:52:10.741Z,20.87
2022-11-09T11:55:13.962Z,21.23
2022-11-09T11:57:49.116Z,21.33
2022-11-09T12:00:18.292Z,20.93
2022-11-09T12:03:05.956Z,19.73
2022-11-09T12:05:57.453Z,20.07
2022-11-09T12:08:29.367Z,19.87
2022-11-09T12:10:58.328Z,20.47
2022-11-09T12:13:49.671Z,20.30
2022-11-09T12:16:29.371Z,19.83
2022-11-09T12:19:14.369Z,20.57
2022-11-09T12:21:52.701Z,19.40
2022-11-09T12:24:35.628Z,18.77
2022-11-09T12:27:31.129Z,19.60
2022-11-09T12:30:06.391Z,19.93
2022-11-09T12:32:59.425Z,19.03
2022-11-09T12:35:42.290Z,19.40
2022-11-09T12:38:17.238Z,20.13
2022-11-09T12:40:59.035Z,20.57
2022-11-09T12:43:29.678Z,20.27
2022-11-09T12:45:57.581Z,19.70
2022-11-09T12:48:35.376Z,19.73
2022-11-09T12:51:04.015Z,20.37
2022-11-09T12:53:34.300Z,18.63
2022-11-09T12:56:10.107Z,19.67
2022-11-09T12:58:37.970Z,20.27
2022-11-09T13:01:06.571Z,18.93
2022-11-09T13:03:35.625Z,18.77
2022-11-09T13:06:27.884Z,18.93
2022-11-09T13:09:13.456Z,18.87
2022-11-09T13:11:42.456Z,20.17
2022-11-09T13:14:27.039Z,19.90
2022-11-09T13:17:01.957Z,20.87
2022-11-09T13:19:34.619Z,21.10
2022-11-09T13:22:16.089Z,20.33
2022-11-09T13:25:00.164Z,19.87
2022-11-09T13:27:32.622Z,20.33
2022-11-09T13:30:00.721Z,20.23
2022-11-09T13:32:29.506Z,21.30
2022-11-09T13:35:00.641Z,20.43
2022-11-09T13:37:36.081Z,20.27
2022-11-09T13:40:31.235Z,19.53
2022-11-09T13:43:16.447Z,20.90
2022-11-09T13:45:56.519Z,20.17
2022-11-09T13:48:39.531Z,20.60
2022-11-09T13:51:09.052Z,20.93
2022-11-09T13:53:38.626Z,21.17
2022-11-09T13:56:33.683Z,19.80
2022-11-09T13:59:09.980Z,20.80
2022-11-09T14:01:48.530Z,21.43
2022-11-09T14:04:25.947Z,20.60
2022-11-09T14:07:12.699Z,20.40
2022-11-09T14:09:58.544Z,20.87
2022-11-09T14:12:42.057Z,19.47
2022-11-09T14:15:30.863Z,20.30
2022-11-09T14:18:13.643Z,19.60
2022-11-09T14:20:58.542Z,20.67
2022-11-09T14:23:32.285Z,21.50
2022-11-09T14:26:06.886Z,20.63
2022-11-09T14:28:34.848Z,21.37
2022-11-09T14:31:02.176Z,19.00
2022-11-09T14:33:34.852Z,19.10
2022-11-09T14:36:02.970Z,19.60
2022-11-09T14:38:35.934Z,20.97
2022-11-09T14:41:03.454Z,19.40
2022-11-09T14:43:47.635Z,21.67
2022-11-09T14:46:20.864Z,21.40
2022-11-09T14:49:00.662Z,21.27
2022-11-09T14:51:38.696Z,20.30
2022-11-09T14:54:12.752Z,21.13
2022-11-09T14:56:40.106Z,20.57
2022-11-09T14:59:14.709Z,21.00
2022-11-09T15:01:41.538Z,21.23
2022-11-09T15:04:11.401Z,20.77
2022-11-09T15:06:46.624Z,20.67
2022-11-09T15:09:19.569Z,21.07
2022-11-09T15:11:46.537Z,20.60
2022-11-09T15:14:35.002Z,20.97
2022-11-09T15:17:15.480Z,22.23
2022-11-09T15:19:50.287Z,21.33
2022-11-09T15:22:49.547Z,21.53
2022-11-09T15:25:34.536Z,22.00
2022-11-09T15:28:12.792Z,24.80
2022-11-09T15:30:45.664Z,22.43
2022-11-09T15:33:21.342Z,22.17
2022-11-09T15:35:53.115Z,21.70
2022-11-09T15:38:39.390Z,22.20
2022-11-09T15:41:18.681Z,22.07
2022-11-09T15:43:45.613Z,22.67
2022-11-09T15:46:24.752Z,22.83
2022-11-09T15:48:51.842Z,22.33
2022-11-09T15:51:18.464Z,22.33
2022-11-09T15:53:45.126Z,22.83
2022-11-09T15:56:20.447Z,24.03
2022-11-09T15:58:49.100Z,23.03
2022-11-09T16:01:16.225Z,23.67
2022-11-09T16:03:42.817Z,25.03
2022-11-09T16:06:22.365Z,23.40
2022-11-09T16:08:50.029Z,22.03
2022-11-09T16:11:16.743Z,23.20
2022-11-09T16:13:43.414Z,23.57
2022-11-09T16:16:12.358Z,24.63
2022-11-09T16:18:38.939Z,23.60
2022-11-09T16:21:23.935Z,22.83
2022-11-09T16:23:55.655Z,23.33
2022-11-09T16:26:24.698Z,24.50
2022-11-09T16:28:51.340Z,25.70
2022-11-09T16:31:25.249Z,24.57
2022-11-09T16:34:01.643Z,26.43
2022-11-09T16:36:29.546Z,24.60
2022-11-09T16:38:56.794Z,26.63
2022-11-09T16:41:23.821Z,24.77
2022-11-09T16:43:55.531Z,25.97
2022-11-09T16:46:24.257Z,25.47
2022-11-09T16:48:50.988Z,25.33
2022-11-09T16:51:17.485Z,27.77
2022-11-09T16:53:44.347Z,26.77
2022-11-09T16:56:11.000Z,26.80
2022-11-09T16:58:37.507Z,25.43
2022-11-09T17:01:11.618Z,26.33
2022-11-09T17:03:39.098Z,26.63
2022-11-09T17:06:07.383Z,27.17
2022-11-09T17:08:33.839Z,26.53
2022-11-09T17:11:00.396Z,27.03
2022-11-09T17:13:26.941Z,25.93
2022-11-09T17:15:53.524Z,26.67
2022-11-09T17:18:20.437Z,27.63
2022-11-09T17:20:49.264Z,26.43
2022-11-09T17:23:18.805Z,26.07
2022-11-09T17:25:59.658Z,26.70
2022-11-09T17:28:26.750Z,26.33
2022-11-09T17:30:53.966Z,26.70
2022-11-09T17:33:20.744Z,27.03
2022-11-09T17:35:47.570Z,27.10
2022-11-09T17:38:14.118Z,26.87
2022-11-09T17:40:40.553Z,26.27
2022-11-09T17:43:07.122Z,25.50
2022-11-09T17:45:35.351Z,26.80
2022-11-09T17:48:01.816Z,28.87
2022-11-09T17:50:28.891Z,28.30
2022-11-09T17:52:55.319Z,26.37
2022-11-09T17:55:21.822Z,26.77
2022-11-09T17:57:48.648Z,27.80
2022-11-09T18:00:15.491Z,27.87
2022-11-09T18:02:42.393Z,26.57
2022-11-09T18:05:10.904Z,25.73
2022-11-09T18:07:37.376Z,25.93
2022-11-09T18:10:04.220Z,26.50
2022-11-09T18:12:30.725Z,26.77
2022-11-09T18:14:57.231Z,26.43
2022-11-09T18:17:23.778Z,27.07
2022-11-09T18:19:50.230Z,27.30
2022-11-09T18:22:16.729Z,28.03
2022-11-09T18:24:43.200Z,28.30
2022-11-09T18:27:09.681Z,27.43
2022-11-09T18:29:36.096Z,27.07
2022-11-09T18:32:02.525Z,27.60
2022-11-09T18:34:29.221Z,27.20
2022-11-09T18:36:55.710Z,25.80
2022-11-09T18:39:22.195Z,28.03
2022-11-09T18:41:48.750Z,27.53
2022-11-09T18:44:15.287Z,27.80
2022-11-09T18:46:41.771Z,27.73
2022-11-09T18:49:13.907Z,29.77
2022-11-09T18:51:40.846Z,29.03
2022-11-09T18:54:07.321Z,29.73
2022-11-09T18:56:34.072Z,29.00
2022-11-09T18:59:00.904Z,27.60
2022-11-09T19:01:27.611Z,29.33
2022-11-09T19:03:59.003Z,27.50
2022-11-09T19:06:26.551Z,28.70
2022-11-09T19:09:11.885Z,28.60
2022-11-09T19:11:38.449Z,28.20
2022-11-09T19:14:04.924Z,28.27
2022-11-09T19:16:31.419Z,27.37
2022-11-09T19:18:58.213Z,27.83
2022-11-09T19:21:24.703Z,28.73
2022-11-09T19:23:51.693Z,29.43
2022-11-09T19:26:18.390Z,29.33
2022-11-09T19:28:44.922Z,29.83
2022-11-09T19:31:13.569Z,28.63
2022-11-09T19:33:40.135Z,29.77
2022-11-09T19:36:29.095Z,28.33
2022-11-09T19:38:53.622Z,28.27
2022-11-09T19:41:20.384Z,29.50
2022-11-09T19:43:50.886Z,28.43
2022-11-09T19:46:17.774Z,26.97
2022-11-09T19:48:45.736Z,28.40
2022-11-09T19:51:13.005Z,30.23
2022-11-09T19:53:42.375Z,28.57
2022-11-09T19:56:09.636Z,28.00
2022-11-09T19:58:36.303Z,27.80
2022-11-09T20:01:04.586Z,28.20
2022-11-09T20:03:31.178Z,30.53
2022-11-09T20:05:57.939Z,29.03
2022-11-09T20:08:25.247Z,28.83
2022-11-09T20:10:52.447Z,29.63
2022-11-09T20:13:20.100Z,29.37
2022-11-09T20:15:46.726Z,27.90
2022-11-09T20:18:13.427Z,29.30
2022-11-09T20:20:40.007Z,28.20
2022-11-09T20:23:06.610Z,28.13
2022-11-09T20:25:33.156Z,29.70
2022-11-09T20:27:59.956Z,30.10
2022-11-09T20:30:26.572Z,29.70
2022-11-09T20:32:53.158Z,30.00
2022-11-09T20:35:19.884Z,30.00
2022-11-09T20:37:46.488Z,29.77
2022-11-09T20:40:13.254Z,31.73
2022-11-09T20:42:39.709Z,30.67
2022-11-09T20:45:06.444Z,31.20
2022-11-09T20:48:02.856Z,30.97
2022-11-09T20:50:20.214Z,29.77
2022-11-09T20:52:46.701Z,31.47
2022-11-09T20:55:13.763Z,31.73
2022-11-09T20:57:40.297Z,31.63
2022-11-09T21:00:07.748Z,32.00
2022-11-09T21:02:34.253Z,30.87
2022-11-09T21:05:01.242Z,31.63
2022-11-09T21:07:27.735Z,30.80
2022-11-09T21:09:54.245Z,33.00
2022-11-09T21:12:24.976Z,30.73
2022-11-09T21:14:52.971Z,31.53
2022-11-09T21:17:20.109Z,30.70
2022-11-09T21:19:46.851Z,30.60
2022-11-09T21:22:13.747Z,31.67
2022-11-09T21:24:58.932Z,31.13
2022-11-09T21:27:47.859Z,30.73
2022-11-09T21:30:15.107Z,29.37
2022-11-09T21:32:41.680Z,29.97
2022-11-09T21:35:08.621Z,30.97
2022-11-09T21:37:35.137Z,31.37
2022-11-09T21:40:01.671Z,30.23
2022-11-09T21:42:30.863Z,30.97
2022-11-09T21:44:57.495Z,31.20
2022-11-09T21:47:24.455Z,32.70
2022-11-09T21:49:50.963Z,32.13
2022-11-09T21:52:17.463Z,31.03
2022-11-09T21:54:43.934Z,31.27
2022-11-09T21:57:10.445Z,31.73
2022-11-09T21:59:36.991Z,32.27
2022-11-09T22:02:03.687Z,32.10
2022-11-09T22:04:30.099Z,31.60
2022-11-09T22:06:56.647Z,31.50
2022-11-09T22:09:23.311Z,31.90
2022-11-09T22:12:08.852Z,30.90
2022-11-09T22:14:54.220Z,32.30
2022-11-09T22:17:20.993Z,32.00
2022-11-09T22:20:06.270Z,32.70
2022-11-09T22:22:34.027Z,32.80
2022-11-09T22:25:00.471Z,32.23
2022-11-09T22:27:27.553Z,32.23
2022-11-09T22:29:54.030Z,31.63
2022-11-09T22:32:20.673Z,32.57
2022-11-09T22:34:47.220Z,32.83
2022-11-09T22:37:13.831Z,31.97
2022-11-09T22:39:45.862Z,33.27
2022-11-09T22:42:13.632Z,34.53
2022-11-09T22:44:40.091Z,31.13
2022-11-09T22:47:06.556Z,30.43
2022-11-09T22:49:34.199Z,31.67
2022-11-09T22:52:00.626Z,32.00
2022-11-09T22:54:27.919Z,31.57
2022-11-09T22:56:54.389Z,32.20
2022-11-09T22:59:20.862Z,31.07
2022-11-09T23:01:48.187Z,32.03
2022-11-09T23:04:14.666Z,30.87
2022-11-09T23:06:41.169Z,31.17
2022-11-09T23:09:07.968Z,30.70
2022-11-09T23:11:34.414Z,33.27
2022-11-09T23:14:00.918Z,31.03
2022-11-09T23:16:27.572Z,31.37
2022-11-09T23:18:54.757Z,30.13
2022-11-09T23:21:26.912Z,31.43
2022-11-09T23:23:55.267Z,30.23
2022-11-09T23:26:22.632Z,30.63
2022-11-09T23:28:49.366Z,31.60
2022-11-09T23:31:19.356Z,30.87
2022-11-09T23:33:48.129Z,31.63
2022-11-09T23:36:14.760Z,31.33
2022-11-09T23:38:41.320Z,30.40
2022-11-09T23:41:09.471Z,32.33
2022-11-09T23:43:36.663Z,30.03
2022-11-09T23:46:06.447Z,32.83
2022-11-09T23:48:33.141Z,29.97
2022-11-09T23:51:00.543Z,29.97
2022-11-09T23:53:29.025Z,30.20
2022-11-09T23:56:03.412Z,29.83
2022-11-09T23:58:30.376Z,29.03
